Time;durP1;ratioP1;P1;durP2;ratioP2;P2;SDS_P1;SDS_P2;PMS_P1;PMS_P2;Temp;Humidity;BMP_temperature;BMP_pressure;BME280_temperature;BME280_humidity;BME280_pressure;Samples;Min_cycle;Max_cycle;Signal;HPM_P1;HPM_P2
2024/02/01 00:01:02;;;;;;;12.23;6.20;;;9.20;99.90;;;;;;5053271;28;20445;-56
2024/02/01 00:03:29;;;;;;;10.77;5.77;;;9.20;99.90;;;;;;5053216;28;20434;-56
2024/02/01 00:05:56;;;;;;;10.10;5.37;;;9.30;99.90;;;;;;5053262;28;20441;-56
2024/02/01 00:08:24;;;;;;;10.23;6.00;;;9.30;99.90;;;;;;5053307;28;20451;-55
2024/02/01 00:10:50;;;;;;;10.17;5.10;;;9.30;99.90;;;;;;5052995;28;20951;-56
2024/02/01 00:13:17;;;;;;;10.10;5.37;;;9.30;99.90;;;;;;5053273;28;20485;-56
2024/02/01 00:15:44;;;;;;;14.87;6.07;;;9.40;99.90;;;;;;5053146;28;20469;-56
2024/02/01 00:18:11;;;;;;;9.10;5.67;;;9.40;99.90;;;;;;5053397;28;20446;-56
2024/02/01 00:20:38;;;;;;;15.17;6.10;;;9.40;99.90;;;;;;5053108;28;20449;-56
2024/02/01 00:23:05;;;;;;;9.77;5.63;;;9.40;99.90;;;;;;5053078;28;20446;-56
2024/02/01 00:25:33;;;;;;;9.03;5.17;;;9.40;99.90;;;;;;5052956;28;20489;-56
2024/02/01 00:28:00;;;;;;;12.20;5.60;;;9.40;99.90;;;;;;5053057;28;20450;-56
2024/02/01 00:30:27;;;;;;;10.93;5.40;;;9.40;99.90;;;;;;5053205;28;20465;-56
2024/02/01 00:32:54;;;;;;;11.00;5.53;;;9.50;99.90;;;;;;5053055;28;20477;-56
2024/02/01 00:35:21;;;;;;;8.27;5.27;;;9.50;99.90;;;;;;5053000;28;20537;-56
2024/02/01 00:37:47;;;;;;;14.37;5.90;;;9.50;99.90;;;;;;5053235;28;20446;-55
2024/02/01 00:40:15;;;;;;;8.73;5.30;;;9.50;99.90;;;;;;5052872;28;20450;-56
2024/02/01 00:42:43;;;;;;;13.43;6.03;;;9.50;99.90;;;;;;5056479;28;20448;-56
2024/02/01 00:45:10;;;;;;;9.30;5.70;;;9.50;99.90;;;;;;5056934;28;20823;-56
2024/02/01 00:47:36;;;;;;;9.33;6.17;;;9.60;99.90;;;;;;5056607;28;20978;-55
2024/02/01 00:50:03;;;;;;;8.23;6.07;;;9.60;99.90;;;;;;5056566;28;20932;-56
2024/02/01 00:52:30;;;;;;;8.03;5.47;;;9.60;99.90;;;;;;5056471;28;20916;-56
2024/02/01 00:54:56;;;;;;;14.20;6.33;;;9.60;99.90;;;;;;5056512;28;20473;-56
2024/02/01 00:57:23;;;;;;;10.10;6.43;;;9.60;99.90;;;;;;5056077;28;20452;-56
2024/02/01 00:59:51;;;;;;;11.30;6.83;;;9.60;99.90;;;;;;5056316;28;20437;-57
2024/02/01 01:02:18;;;;;;;11.27;6.73;;;9.60;99.90;;;;;;5056759;28;20437;-58
2024/02/01 01:04:44;;;;;;;8.53;6.20;;;9.60;99.90;;;;;;5056218;28;20838;-57
2024/02/01 01:07:11;;;;;;;7.70;5.60;;;9.60;99.90;;;;;;5056569;28;20438;-57
2024/02/01 01:09:38;;;;;;;15.00;7.27;;;9.60;99.90;;;;;;5056637;28;20442;-58
2024/02/01 01:12:05;;;;;;;8.80;5.80;;;9.50;99.90;;;;;;5056346;28;20445;-58
2024/02/01 01:14:32;;;;;;;8.10;7.10;;;9.50;99.90;;;;;;5056409;28;20458;-57
2024/02/01 01:17:00;;;;;;;9.77;6.27;;;9.50;99.90;;;;;;5056703;28;20452;-58
2024/02/01 01:19:26;;;;;;;10.53;8.40;;;9.40;99.90;;;;;;5056370;28;20469;-58
2024/02/01 01:21:53;;;;;;;10.70;6.20;;;9.30;99.90;;;;;;5056396;28;20446;-58
2024/02/01 01:24:20;;;;;;;10.47;6.93;;;9.30;99.90;;;;;;5056226;28;20453;-58
2024/02/01 01:26:46;;;;;;;10.30;7.63;;;9.30;99.90;;;;;;5056151;28;20448;-58
2024/02/01 01:29:13;;;;;;;12.30;8.23;;;9.20;99.90;;;;;;5056239;28;20448;-58
2024/02/01 01:31:42;;;;;;;14.50;7.63;;;9.20;99.90;;;;;;5056194;28;20441;-58
2024/02/01 01:34:10;;;;;;;8.93;7.43;;;9.20;99.90;;;;;;5055997;28;20490;-58
2024/02/01 01:36:36;;;;;;;13.70;8.30;;;9.20;99.90;;;;;;5055976;28;20456;-57
2024/02/01 01:39:03;;;;;;;8.33;7.43;;;9.20;99.90;;;;;;5056033;28;20441;-58
2024/02/01 01:41:30;;;;;;;14.30;8.47;;;9.20;99.90;;;;;;5056029;28;20453;-58
2024/02/01 01:43:57;;;;;;;19.23;8.07;;;9.20;99.90;;;;;;5056644;28;20461;-58
2024/02/01 01:46:25;;;;;;;12.20;8.13;;;9.20;99.90;;;;;;5056002;28;20441;-58
2024/02/01 01:48:52;;;;;;;13.80;8.60;;;9.20;99.90;;;;;;5056071;28;20457;-58
2024/02/01 01:51:20;;;;;;;12.50;8.30;;;9.20;99.90;;;;;;5056117;28;20450;-58
2024/02/01 01:53:50;;;;;;;10.83;7.90;;;9.20;99.90;;;;;;5054649;28;20481;-58
2024/02/01 01:56:18;;;;;;;8.33;7.50;;;9.20;99.90;;;;;;5056282;28;20434;-58
2024/02/01 01:58:46;;;;;;;10.53;8.00;;;9.20;99.90;;;;;;5056044;28;20446;-58
2024/02/01 02:01:13;;;;;;;11.30;7.57;;;9.20;99.90;;;;;;5055762;28;20446;-58
2024/02/01 02:03:42;;;;;;;10.33;7.57;;;9.20;99.90;;;;;;5055173;28;20822;-58
2024/02/01 02:06:09;;;;;;;12.23;7.87;;;9.20;99.90;;;;;;5056026;28;20438;-57
2024/02/01 02:08:37;;;;;;;13.17;7.83;;;9.20;99.90;;;;;;5055616;28;20449;-58
2024/02/01 02:11:04;;;;;;;12.80;8.03;;;9.20;99.90;;;;;;5055472;28;20442;-58
2024/02/01 02:13:30;;;;;;;12.10;9.07;;;9.20;99.90;;;;;;5055269;28;20481;-58
2024/02/01 02:15:57;;;;;;;12.43;8.00;;;9.20;99.90;;;;;;5055422;28;20446;-58
2024/02/01 02:18:24;;;;;;;10.20;8.00;;;9.20;99.90;;;;;;5055412;28;20448;-58
2024/02/01 02:20:52;;;;;;;11.30;7.93;;;9.20;99.90;;;;;;5055087;28;20503;-58
2024/02/01 02:23:21;;;;;;;11.50;9.27;;;9.20;99.90;;;;;;5055075;28;20947;-58
2024/02/01 02:25:49;;;;;;;10.33;8.80;;;9.20;99.90;;;;;;5055188;28;20464;-58
2024/02/01 02:28:16;;;;;;;17.67;9.37;;;9.20;99.90;;;;;;5055136;28;20544;-58
2024/02/01 02:30:42;;;;;;;10.20;8.30;;;9.20;99.90;;;;;;5055008;28;20507;-59
2024/02/01 02:33:09;;;;;;;10.37;8.90;;;9.20;99.90;;;;;;5055067;28;20513;-59
2024/02/01 02:35:36;;;;;;;10.90;8.60;;;9.20;99.90;;;;;;5054970;28;20508;-58
2024/02/01 02:38:02;;;;;;;14.00;10.30;;;9.20;99.90;;;;;;5055179;28;20442;-58
2024/02/01 02:40:30;;;;;;;11.63;8.57;;;9.20;99.90;;;;;;5055661;28;20454;-58
2024/02/01 02:42:57;;;;;;;9.07;8.10;;;9.20;99.90;;;;;;5054309;28;20452;-58
2024/02/01 02:45:24;;;;;;;13.63;9.07;;;9.20;99.90;;;;;;5054627;28;20465;-58
2024/02/01 02:47:51;;;;;;;11.97;9.27;;;9.20;99.90;;;;;;5054377;28;20928;-58
2024/02/01 02:50:17;;;;;;;12.97;8.80;;;9.30;99.90;;;;;;5054330;28;20936;-58
2024/02/01 02:52:45;;;;;;;11.37;9.70;;;9.30;99.90;;;;;;5054237;28;20461;-58
2024/02/01 02:55:12;;;;;;;13.10;9.50;;;9.30;99.90;;;;;;5054474;28;20461;-58
2024/02/01 02:57:40;;;;;;;12.37;9.53;;;9.30;99.90;;;;;;5054391;28;20481;-58
2024/02/01 03:00:09;;;;;;;11.60;8.23;;;9.30;99.90;;;;;;5054430;28;20820;-58
2024/02/01 03:02:36;;;;;;;16.70;10.50;;;9.30;99.90;;;;;;5054488;28;20488;-58
2024/02/01 03:05:05;;;;;;;13.50;9.67;;;9.30;99.90;;;;;;5054189;28;20457;-58
2024/02/01 03:07:32;;;;;;;11.33;9.40;;;9.30;99.90;;;;;;5054296;28;20453;-58
2024/02/01 03:10:01;;;;;;;10.87;9.23;;;9.30;99.90;;;;;;5054212;28;20441;-58
2024/02/01 03:12:27;;;;;;;11.03;9.20;;;9.30;99.90;;;;;;5054089;28;20555;-58
2024/02/01 03:14:55;;;;;;;11.63;9.63;;;9.30;99.90;;;;;;5054072;28;20493;-58
2024/02/01 03:17:22;;;;;;;9.10;8.10;;;9.30;99.90;;;;;;5053827;28;20449;-58
2024/02/01 03:19:50;;;;;;;12.00;9.00;;;9.30;99.90;;;;;;5054029;28;20516;-58
2024/02/01 03:22:19;;;;;;;9.50;8.50;;;9.30;99.90;;;;;;5053896;28;20449;-57
2024/02/01 03:24:46;;;;;;;13.30;9.30;;;9.30;99.90;;;;;;5053913;28;20472;-58
2024/02/01 03:27:13;;;;;;;11.97;9.23;;;9.40;99.90;;;;;;5053567;28;20894;-58
2024/02/01 03:29:42;;;;;;;10.43;9.23;;;9.40;99.90;;;;;;5053923;28;20442;-58
2024/02/01 03:32:10;;;;;;;9.40;8.47;;;9.30;99.90;;;;;;5053575;28;20850;-58
2024/02/01 03:34:36;;;;;;;12.80;10.40;;;9.30;99.90;;;;;;5053461;28;20492;-58
2024/02/01 03:37:03;;;;;;;10.43;9.33;;;9.30;99.90;;;;;;5053652;28;20446;-58
2024/02/01 03:39:31;;;;;;;11.70;10.27;;;9.30;99.90;;;;;;5053439;28;20441;-58
2024/02/01 03:41:58;;;;;;;14.10;9.43;;;9.40;99.90;;;;;;5053840;28;20442;-58
2024/02/01 03:44:26;;;;;;;12.00;9.60;;;9.40;99.90;;;;;;5053142;28;20970;-57
2024/02/01 03:46:54;;;;;;;12.57;9.30;;;9.40;99.90;;;;;;5053493;28;20450;-58
2024/02/01 03:49:22;;;;;;;10.70;9.17;;;9.40;99.90;;;;;;5053435;28;20831;-58
2024/02/01 03:51:48;;;;;;;13.23;9.83;;;9.40;99.90;;;;;;5053259;28;20450;-58
2024/02/01 03:54:15;;;;;;;10.90;9.47;;;9.40;99.90;;;;;;5053594;28;20493;-58
2024/02/01 03:56:43;;;;;;;10.80;9.70;;;9.40;99.90;;;;;;5053412;28;20450;-58
2024/02/01 03:59:11;;;;;;;12.30;10.13;;;9.40;99.90;;;;;;5053399;28;20449;-58
2024/02/01 04:01:40;;;;;;;11.77;10.57;;;9.50;99.90;;;;;;5053301;28;21038;-58
2024/02/01 04:04:07;;;;;;;11.00;9.70;;;9.50;99.90;;;;;;5053154;28;20468;-57
2024/02/01 04:06:37;;;;;;;11.67;9.60;;;9.50;99.90;;;;;;5053305;28;20445;-57
2024/02/01 04:09:05;;;;;;;10.10;9.10;;;9.50;99.90;;;;;;5052949;28;21013;-57
2024/02/01 04:11:32;;;;;;;12.70;9.83;;;9.50;99.90;;;;;;5053055;28;20446;-57
2024/02/01 04:13:59;;;;;;;12.67;10.07;;;9.50;99.90;;;;;;5052907;28;20489;-58
2024/02/01 04:16:26;;;;;;;12.17;10.87;;;9.60;99.90;;;;;;5056861;28;20909;-58
2024/02/01 04:18:55;;;;;;;12.07;10.30;;;9.60;99.90;;;;;;5059567;28;20468;-58
2024/02/01 04:21:22;;;;;;;11.57;10.07;;;9.60;99.90;;;;;;5059849;28;20452;-57
2024/02/01 04:23:50;;;;;;;11.30;10.07;;;9.60;99.90;;;;;;5059719;28;20441;-57
2024/02/01 04:26:17;;;;;;;11.93;10.83;;;9.60;99.90;;;;;;5059755;28;20438;-58
2024/02/01 04:28:44;;;;;;;11.93;10.73;;;9.60;99.90;;;;;;5059515;28;20943;-57
2024/02/01 04:31:10;;;;;;;12.27;10.40;;;9.60;99.90;;;;;;5059732;28;20488;-57
2024/02/01 04:33:40;;;;;;;12.20;10.80;;;9.60;99.90;;;;;;5059660;28;20546;-57
2024/02/01 04:36:08;;;;;;;13.50;11.00;;;9.60;99.90;;;;;;5059933;28;20453;-58
2024/02/01 04:38:35;;;;;;;11.93;10.73;;;9.60;99.90;;;;;;5059683;28;20477;-57
2024/02/01 04:41:05;;;;;;;12.43;11.00;;;9.60;99.90;;;;;;5059891;28;20449;-57
2024/02/01 04:43:32;;;;;;;11.43;10.33;;;9.60;99.90;;;;;;5059540;28;20457;-57
2024/02/01 04:45:58;;;;;;;11.70;10.57;;;9.60;99.90;;;;;;5059660;28;20453;-58
2024/02/01 04:48:25;;;;;;;11.70;10.60;;;9.60;99.90;;;;;;5059717;28;20441;-58
2024/02/01 04:50:52;;;;;;;13.63;10.73;;;9.60;99.90;;;;;;5059682;28;20441;-58
2024/02/01 04:53:18;;;;;;;11.63;10.43;;;9.60;99.90;;;;;;5059309;28;20853;-57
2024/02/01 04:55:49;;;;;;;12.70;10.07;;;9.60;99.90;;;;;;5059256;28;20970;-58
2024/02/01 04:58:18;;;;;;;11.43;10.33;;;9.60;99.90;;;;;;5060014;28;20529;-58
2024/02/01 05:00:45;;;;;;;11.73;10.30;;;9.60;99.90;;;;;;5059343;28;20449;-58
2024/02/01 05:03:14;;;;;;;14.23;12.93;;;9.60;99.90;;;;;;5059141;28;20969;-57
2024/02/01 05:05:45;;;;;;;12.77;11.47;;;9.60;99.90;;;;;;5059068;28;20983;-57
2024/02/01 05:08:14;;;;;;;16.37;11.73;;;9.60;99.90;;;;;;5059401;28;20764;-57
2024/02/01 05:10:43;;;;;;;12.30;10.67;;;9.60;99.90;;;;;;5059299;28;20438;-57
2024/02/01 05:13:12;;;;;;;12.43;11.23;;;9.70;99.90;;;;;;5059524;28;20495;-57
2024/02/01 05:15:41;;;;;;;12.73;11.43;;;9.70;99.90;;;;;;5059057;28;21046;-57
2024/02/01 05:18:08;;;;;;;14.07;12.67;;;9.70;99.90;;;;;;5059535;28;20894;-57
2024/02/01 05:20:35;;;;;;;17.43;12.10;;;9.70;99.90;;;;;;5059176;28;20958;-57
2024/02/01 05:23:03;;;;;;;15.03;12.07;;;9.70;99.90;;;;;;5059529;28;20499;-57
2024/02/01 05:25:29;;;;;;;16.00;12.67;;;9.70;99.90;;;;;;5059379;28;20465;-57
2024/02/01 05:27:57;;;;;;;15.73;11.97;;;9.80;99.90;;;;;;5056287;28;20453;-57
2024/02/01 05:30:24;;;;;;;14.40;12.17;;;9.80;99.90;;;;;;5056007;28;20445;-57
2024/02/01 05:32:53;;;;;;;15.80;12.57;;;9.80;99.90;;;;;;5055876;28;20452;-57
2024/02/01 05:35:26;;;;;;;15.93;11.93;;;9.80;99.90;;;;;;5055907;28;20566;-57
2024/02/01 05:37:52;;;;;;;15.80;12.97;;;9.80;99.90;;;;;;5056141;28;20524;-57
2024/02/01 05:40:19;;;;;;;15.03;13.53;;;9.80;99.90;;;;;;5056246;28;20449;-57
2024/02/01 05:42:46;;;;;;;17.00;13.87;;;9.80;99.90;;;;;;5055944;28;20794;-57
2024/02/01 05:45:14;;;;;;;18.87;13.80;;;9.90;99.90;;;;;;5055775;28;20465;-57
2024/02/01 05:47:41;;;;;;;20.73;15.77;;;9.90;99.90;;;;;;5056310;28;20446;-57
2024/02/01 05:50:10;;;;;;;17.43;15.10;;;9.90;99.90;;;;;;5055676;28;20469;-57
2024/02/01 05:52:37;;;;;;;20.23;15.97;;;9.90;99.90;;;;;;5055307;28;20454;-57
2024/02/01 05:55:05;;;;;;;19.90;15.73;;;9.90;99.90;;;;;;5055790;28;20524;-57
2024/02/01 05:57:32;;;;;;;25.70;17.97;;;9.90;99.90;;;;;;5055633;28;20504;-57
2024/02/01 05:59:59;;;;;;;25.90;18.10;;;9.90;99.90;;;;;;5055506;28;20791;-57
2024/02/01 06:02:26;;;;;;;24.33;18.27;;;9.90;99.90;;;;;;5055510;28;20438;-57
2024/02/01 06:04:53;;;;;;;29.17;20.33;;;9.90;99.90;;;;;;5055413;28;20493;-57
2024/02/01 06:07:21;;;;;;;28.80;21.50;;;9.90;99.90;;;;;;5055564;28;20446;-56
2024/02/01 06:09:47;;;;;;;24.30;18.03;;;10.00;99.90;;;;;;5056243;28;20446;-57
2024/02/01 06:12:14;;;;;;;26.53;18.90;;;10.00;99.90;;;;;;5055203;28;20442;-57
2024/02/01 06:14:41;;;;;;;25.57;18.77;;;10.00;99.90;;;;;;5055160;28;20481;-57
2024/02/01 06:17:08;;;;;;;26.10;17.27;;;10.00;99.90;;;;;;5055323;28;20450;-57
2024/02/01 06:19:34;;;;;;;23.80;17.70;;;9.90;99.90;;;;;;5055326;28;20448;-57
2024/02/01 06:22:05;;;;;;;21.07;16.33;;;9.90;99.90;;;;;;5055208;28;20445;-57
2024/02/01 06:24:34;;;;;;;26.30;17.00;;;9.90;99.90;;;;;;5055094;28;20461;-57
2024/02/01 06:27:01;;;;;;;21.43;15.63;;;9.90;99.90;;;;;;5055076;28;20449;-57
2024/02/01 06:29:28;;;;;;;25.40;14.50;;;9.90;99.90;;;;;;5055178;28;20446;-57
2024/02/01 06:31:55;;;;;;;18.20;15.43;;;9.90;99.90;;;;;;5054617;28;20947;-57
2024/02/01 06:34:27;;;;;;;17.43;13.90;;;9.90;99.90;;;;;;5054752;28;20486;-57
2024/02/01 06:36:58;;;;;;;18.90;13.90;;;9.90;99.90;;;;;;5054662;28;20429;-57
2024/02/01 06:39:47;;;;;;;17.00;11.77;;;9.90;99.90;;;;;;5054768;28;20529;-56
2024/02/01 06:42:24;;;;;;;17.20;10.67;;;9.90;99.90;;;;;;5054758;28;20430;-57
2024/02/01 06:45:06;;;;;;;11.80;8.10;;;9.90;99.90;;;;;;5054722;28;20468;-57
2024/02/01 06:47:38;;;;;;;12.73;7.50;;;9.90;99.90;;;;;;5054773;28;20476;-57
2024/02/01 06:50:15;;;;;;;12.50;7.20;;;9.80;99.90;;;;;;5054757;28;20441;-57
2024/02/01 06:52:43;;;;;;;12.50;6.03;;;9.70;99.90;;;;;;5054150;28;20465;-57
2024/02/01 06:58:13;;;;;;;8.37;5.93;;;9.60;99.90;;;;;;5052270;28;20429;-57
2024/02/01 07:00:51;;;;;;;8.53;5.10;;;9.50;99.90;;;;;;5054422;28;20457;-57
2024/02/01 07:03:44;;;;;;;12.20;4.93;;;9.40;99.90;;;;;;5054354;28;20449;-57
2024/02/01 07:06:25;;;;;;;8.90;4.30;;;9.40;99.90;;;;;;5054318;28;20422;-57
2024/02/01 07:08:56;;;;;;;9.70;4.57;;;9.30;99.90;;;;;;5054288;28;20433;-57
2024/02/01 07:11:30;;;;;;;10.50;5.17;;;9.30;99.90;;;;;;5054146;28;20433;-57
2024/02/01 07:14:08;;;;;;;12.13;5.17;;;9.30;99.90;;;;;;5054023;28;20462;-57
2024/02/01 07:16:54;;;;;;;15.90;5.73;;;9.20;99.90;;;;;;5054190;28;20425;-57
2024/02/01 07:19:39;;;;;;;12.70;6.00;;;9.30;99.90;;;;;;5053760;28;20799;-57
2024/02/01 07:22:06;;;;;;;9.23;3.60;;;9.20;99.90;;;;;;5054072;28;20462;-57
2024/02/01 07:24:46;;;;;;;13.77;3.10;;;9.20;99.90;;;;;;5053609;28;21015;-57
2024/02/01 07:57:55;;;;;;;12.60;2.40;;;8.70;99.90;;;;;;5053652;28;20903;-57
2024/02/01 08:00:31;;;;;;;17.10;2.63;;;8.70;99.90;;;;;;5053382;28;20438;-57
2024/02/01 08:03:04;;;;;;;20.03;3.70;;;8.70;99.90;;;;;;5053425;28;20432;-57
2024/02/01 08:08:16;;;;;;;14.30;4.23;;;8.70;99.90;;;;;;5053326;28;20483;-57
2024/02/01 08:10:44;;;;;;;15.93;4.97;;;8.70;99.90;;;;;;5053258;28;20450;-57
2024/02/01 08:13:12;;;;;;;17.23;4.13;;;8.70;99.90;;;;;;5053287;28;20482;-57
2024/02/01 08:15:41;;;;;;;15.13;3.70;;;8.70;99.90;;;;;;5053142;28;20496;-57
2024/02/01 08:18:12;;;;;;;13.67;4.00;;;8.70;99.90;;;;;;5053305;28;20453;-57
2024/02/01 08:20:39;;;;;;;11.80;3.57;;;8.70;99.90;;;;;;5053179;28;20487;-57
2024/02/01 08:23:07;;;;;;;13.67;3.23;;;8.70;99.90;;;;;;5053195;28;20463;-57
2024/02/01 08:25:34;;;;;;;13.53;3.27;;;8.70;99.90;;;;;;5052735;28;20835;-57
2024/02/01 08:28:03;;;;;;;18.80;3.50;;;8.70;99.90;;;;;;5053264;28;20441;-57
2024/02/01 08:30:31;;;;;;;14.40;2.97;;;8.70;99.90;;;;;;5053130;28;20533;-57
2024/02/01 08:33:03;;;;;;;15.17;2.73;;;8.60;99.90;;;;;;5052999;28;20460;-57
2024/02/01 08:35:33;;;;;;;14.57;3.80;;;8.60;99.90;;;;;;5053060;28;20497;-57
2024/02/01 08:38:01;;;;;;;14.27;2.70;;;8.60;99.90;;;;;;5053499;28;20429;-57
2024/02/01 08:40:27;;;;;;;17.60;3.87;;;8.60;99.90;;;;;;5053213;28;20446;-57
2024/02/01 08:42:57;;;;;;;9.77;3.60;;;8.60;99.90;;;;;;5053231;28;20450;-57
2024/02/01 08:45:27;;;;;;;8.17;2.83;;;8.60;99.90;;;;;;5053674;28;20462;-57
2024/02/01 08:47:53;;;;;;;15.33;2.83;;;8.60;99.90;;;;;;5053021;28;20450;-57
2024/02/01 08:50:20;;;;;;;15.07;3.60;;;8.60;99.90;;;;;;5053072;28;20889;-57
2024/02/01 08:52:48;;;;;;;12.60;3.37;;;8.60;99.90;;;;;;5052894;28;20449;-57
2024/02/01 08:55:16;;;;;;;15.00;2.90;;;8.50;99.90;;;;;;5052911;28;20489;-57
2024/02/01 08:57:44;;;;;;;12.60;3.57;;;8.50;99.90;;;;;;5053093;28;20836;-57
2024/02/01 09:00:25;;;;;;;15.77;3.10;;;8.50;99.90;;;;;;5052931;28;20453;-57
2024/02/01 09:03:03;;;;;;;12.97;3.97;;;8.50;99.90;;;;;;5055343;28;20528;-57
2024/02/01 09:05:34;;;;;;;16.00;4.23;;;8.50;99.90;;;;;;5056681;28;20511;-57
2024/02/01 09:08:04;;;;;;;15.87;3.00;;;8.50;99.90;;;;;;5056586;28;20488;-57
2024/02/01 09:10:32;;;;;;;11.37;3.40;;;8.50;99.90;;;;;;5056794;28;20442;-57
2024/02/01 09:12:59;;;;;;;17.33;3.53;;;8.50;99.90;;;;;;5056517;28;20528;-57
2024/02/01 09:15:26;;;;;;;21.57;3.90;;;8.50;99.90;;;;;;5056437;28;20493;-56
2024/02/01 09:17:56;;;;;;;16.13;3.23;;;8.50;99.90;;;;;;5056570;28;20448;-57
2024/02/01 09:20:25;;;;;;;18.30;3.63;;;8.50;99.90;;;;;;5056897;28;20456;-57
2024/02/01 09:22:53;;;;;;;15.97;3.70;;;8.50;99.90;;;;;;5056605;28;20528;-57
2024/02/01 09:25:24;;;;;;;14.90;4.00;;;8.50;99.90;;;;;;5056305;28;20457;-56
2024/02/01 09:27:52;;;;;;;17.27;3.60;;;8.60;99.90;;;;;;5056466;28;20457;-57
2024/02/01 09:30:20;;;;;;;16.03;3.33;;;8.70;99.90;;;;;;5056113;28;20445;-57
2024/02/01 09:32:51;;;;;;;18.60;3.20;;;8.70;99.90;;;;;;5056112;28;20437;-57
2024/02/01 09:35:18;;;;;;;12.60;3.13;;;8.70;99.90;;;;;;5056224;28;20520;-57
2024/02/01 09:37:45;;;;;;;18.43;4.43;;;8.80;99.90;;;;;;5056243;28;20449;-57
2024/02/01 09:40:12;;;;;;;15.80;4.60;;;8.80;99.90;;;;;;5056219;28;20441;-57
2024/02/01 09:42:42;;;;;;;15.10;3.47;;;8.80;99.90;;;;;;5056432;28;20450;-56
2024/02/01 09:45:10;;;;;;;18.57;3.80;;;8.80;99.90;;;;;;5055950;28;20489;-57
2024/02/01 09:47:43;;;;;;;24.27;4.57;;;8.90;99.90;;;;;;5056236;28;20446;-57
2024/02/01 09:50:12;;;;;;;18.47;3.70;;;8.90;99.90;;;;;;5055780;28;20549;-57
2024/02/01 09:52:40;;;;;;;15.03;3.03;;;8.90;99.90;;;;;;5055267;28;20973;-57
2024/02/01 09:55:08;;;;;;;15.47;3.10;;;9.00;99.90;;;;;;5055591;28;20559;-56
2024/02/01 09:57:40;;;;;;;19.97;3.63;;;9.10;99.90;;;;;;5056344;28;20477;-57
2024/02/01 10:00:14;;;;;;;13.57;3.10;;;9.10;99.90;;;;;;5055828;28;20429;-57
2024/02/01 10:02:42;;;;;;;14.60;3.60;;;9.10;99.90;;;;;;5056177;28;20426;-56
2024/02/01 10:05:09;;;;;;;14.97;2.77;;;9.20;99.90;;;;;;5055540;28;20504;-56
2024/02/01 10:07:36;;;;;;;19.17;3.60;;;9.20;99.90;;;;;;5055253;28;20969;-56
2024/02/01 10:10:05;;;;;;;18.20;3.73;;;9.30;99.90;;;;;;5056000;28;20446;-56
2024/02/01 10:12:31;;;;;;;17.00;3.17;;;9.40;99.90;;;;;;5055458;28;20489;-56
2024/02/01 10:14:58;;;;;;;10.93;3.00;;;9.50;99.90;;;;;;5054312;28;20523;-56
2024/02/01 10:17:27;;;;;;;16.73;4.60;;;9.50;99.90;;;;;;5055362;28;20445;-56
2024/02/01 10:19:54;;;;;;;20.37;3.60;;;9.50;99.90;;;;;;5055006;28;20450;-56
2024/02/01 10:22:21;;;;;;;10.03;3.27;;;9.50;99.90;;;;;;5055275;28;20441;-56
2024/02/01 10:24:51;;;;;;;15.30;3.27;;;9.50;99.90;;;;;;5055061;28;20457;-56
2024/02/01 10:27:20;;;;;;;18.00;3.50;;;9.60;99.90;;;;;;5054738;28;20452;-56
2024/02/01 10:29:46;;;;;;;14.67;3.07;;;9.60;99.90;;;;;;5055052;28;20477;-56
2024/02/01 10:32:15;;;;;;;18.07;4.20;;;9.70;99.90;;;;;;5055008;28;20453;-55
2024/02/01 10:34:49;;;;;;;17.80;3.90;;;9.80;99.90;;;;;;5054830;28;20508;-56
2024/02/01 10:37:18;;;;;;;21.43;3.07;;;9.90;99.90;;;;;;5054877;28;20465;-56
2024/02/01 10:39:51;;;;;;;23.93;4.40;;;10.00;99.40;;;;;;5054517;28;20944;-56
2024/02/01 10:42:22;;;;;;;12.20;2.23;;;10.00;99.90;;;;;;5054868;28;20426;-55
2024/02/01 10:44:50;;;;;;;23.77;5.50;;;10.10;99.90;;;;;;5054721;28;20461;-56
2024/02/01 10:47:21;;;;;;;21.23;4.50;;;10.20;99.60;;;;;;5054635;28;20446;-56
2024/02/01 10:49:52;;;;;;;14.50;4.47;;;10.20;99.20;;;;;;5054369;28;20900;-56
2024/02/01 10:52:20;;;;;;;16.40;5.77;;;10.20;98.70;;;;;;5054084;28;20458;-56
2024/02/01 10:54:47;;;;;;;24.57;4.67;;;10.30;98.90;;;;;;5054305;28;20493;-56
2024/02/01 10:57:15;;;;;;;16.13;3.50;;;10.30;99.30;;;;;;5054405;28;20839;-56
2024/02/01 10:59:44;;;;;;;14.23;3.20;;;10.40;99.30;;;;;;5054465;28;20450;-56
2024/02/01 11:02:11;;;;;;;14.10;4.03;;;10.40;99.20;;;;;;5054292;28;20519;-56
2024/02/01 11:04:38;;;;;;;13.80;3.67;;;10.50;98.40;;;;;;5054217;28;20464;-56
2024/02/01 11:07:07;;;;;;;17.93;3.80;;;10.60;98.20;;;;;;5054609;28;21014;-56
2024/02/01 11:09:34;;;;;;;13.40;3.03;;;10.70;97.30;;;;;;5054151;28;20450;-56
2024/02/01 11:12:00;;;;;;;19.37;3.70;;;10.70;97.10;;;;;;5054152;28;20441;-56
2024/02/01 11:14:29;;;;;;;13.93;3.87;;;10.80;97.10;;;;;;5053956;28;20472;-56
2024/02/01 11:16:58;;;;;;;15.87;2.97;;;10.90;96.50;;;;;;5053872;28;20504;-56
2024/02/01 11:19:26;;;;;;;20.43;4.40;;;11.20;96.10;;;;;;5054053;28;20456;-56
2024/02/01 11:21:55;;;;;;;23.80;6.00;;;11.80;95.90;;;;;;5053998;28;20452;-56
2024/02/01 11:24:25;;;;;;;14.77;4.50;;;12.40;95.40;;;;;;5053852;28;20527;-56
2024/02/01 11:26:55;;;;;;;20.20;4.13;;;12.90;93.10;;;;;;5052828;28;20429;-56
2024/02/01 11:29:24;;;;;;;11.33;3.17;;;13.20;91.60;;;;;;5054171;28;20453;-56
2024/02/01 11:31:56;;;;;;;15.60;3.10;;;13.30;90.20;;;;;;5053899;28;20450;-56
2024/02/01 11:34:23;;;;;;;7.73;2.70;;;13.40;90.10;;;;;;5053650;28;20469;-56
2024/02/01 11:36:50;;;;;;;25.37;4.50;;;13.70;89.20;;;;;;5053925;28;20478;-56
2024/02/01 11:39:17;;;;;;;13.43;3.90;;;14.00;86.90;;;;;;5053366;28;20958;-56
2024/02/01 11:41:46;;;;;;;14.70;5.40;;;14.20;84.50;;;;;;5053673;28;20449;-56
2024/02/01 11:44:14;;;;;;;15.30;7.63;;;14.50;81.90;;;;;;5053612;28;20498;-56
2024/02/01 11:46:45;;;;;;;13.93;7.07;;;14.80;77.60;;;;;;5053533;28;20437;-56
2024/02/01 11:49:16;;;;;;;16.17;6.50;;;15.20;77.40;;;;;;5053560;28;20491;-56
2024/02/01 11:51:45;;;;;;;15.37;6.50;;;15.60;74.30;;;;;;5053455;28;20456;-57
2024/02/01 11:54:11;;;;;;;14.90;4.40;;;16.00;71.50;;;;;;5053878;28;20469;-57
2024/02/01 11:56:38;;;;;;;13.47;3.90;;;16.40;68.80;;;;;;5054394;28;20859;-57
2024/02/01 11:59:06;;;;;;;22.03;4.37;;;16.60;67.10;;;;;;5053389;28;20812;-56
2024/02/01 12:01:33;;;;;;;12.47;3.10;;;16.70;63.00;;;;;;5053374;28;20968;-57
2024/02/01 12:04:00;;;;;;;14.20;2.90;;;16.70;61.00;;;;;;5053451;28;20469;-56
2024/02/01 12:06:27;;;;;;;10.33;3.43;;;16.50;61.10;;;;;;5053418;28;20442;-56
2024/02/01 12:08:59;;;;;;;15.50;3.00;;;16.30;60.50;;;;;;5053543;28;20453;-56
2024/02/01 12:11:33;;;;;;;17.13;3.03;;;15.80;61.60;;;;;;5052966;28;20434;-56
2024/02/01 12:14:02;;;;;;;16.87;3.77;;;15.40;61.50;;;;;;5052955;28;20967;-56
2024/02/01 12:16:31;;;;;;;18.40;3.30;;;15.10;62.80;;;;;;5052929;28;20576;-56
2024/02/01 12:18:59;;;;;;;14.83;3.67;;;14.60;64.90;;;;;;5052864;28;20480;-56
2024/02/01 12:21:29;;;;;;;22.27;3.80;;;14.20;68.40;;;;;;5053462;28;20437;-56
2024/02/01 12:23:59;;;;;;;10.07;3.10;;;13.70;69.70;;;;;;5053154;28;20441;-56
2024/02/01 12:26:27;;;;;;;14.63;3.47;;;13.10;72.20;;;;;;5052907;28;20983;-56
2024/02/01 12:28:55;;;;;;;14.70;3.10;;;13.00;72.90;;;;;;5053201;28;20441;-56
2024/02/01 12:31:22;;;;;;;19.80;4.73;;;13.00;74.40;;;;;;5052984;28;20930;-56
2024/02/01 12:33:50;;;;;;;11.40;2.50;;;13.20;73.20;;;;;;5052926;28;20446;-56
2024/02/01 12:36:17;;;;;;;16.33;3.30;;;13.70;72.90;;;;;;5053014;28;20564;-56
2024/02/01 12:38:45;;;;;;;14.37;3.60;;;14.30;71.90;;;;;;5056750;28;20449;-56
2024/02/01 12:41:13;;;;;;;9.70;2.57;;;14.60;68.30;;;;;;5057422;28;20446;-56
2024/02/01 12:43:40;;;;;;;11.17;2.50;;;14.80;65.80;;;;;;5056678;28;20936;-56
2024/02/01 12:46:09;;;;;;;15.20;2.97;;;15.10;65.70;;;;;;5056945;28;20483;-56
2024/02/01 12:48:37;;;;;;;12.83;2.73;;;15.30;63.30;;;;;;5056689;28;20450;-56
2024/02/01 12:51:06;;;;;;;11.80;3.33;;;15.40;62.90;;;;;;5057444;28;20445;-56
2024/02/01 12:53:33;;;;;;;11.80;3.33;;;15.60;62.10;;;;;;5056281;28;20951;-56
2024/02/01 12:56:00;;;;;;;12.47;3.27;;;15.60;62.30;;;;;;5056269;28;20489;-56
2024/02/01 12:58:27;;;;;;;8.30;3.40;;;15.80;61.90;;;;;;5056430;28;20454;-56
2024/02/01 13:00:54;;;;;;;13.30;3.07;;;16.20;62.40;;;;;;5056948;28;20448;-56
2024/02/01 13:03:20;;;;;;;15.10;3.60;;;16.50;59.50;;;;;;5056426;28;20960;-56
2024/02/01 13:05:47;;;;;;;18.47;5.03;;;17.00;59.10;;;;;;5056575;28;20828;-56
2024/02/01 13:08:15;;;;;;;11.30;3.73;;;17.30;58.00;;;;;;5056307;28;20891;-56
2024/02/01 13:10:44;;;;;;;13.90;3.60;;;17.20;55.30;;;;;;5056541;28;20455;-56
2024/02/01 13:13:11;;;;;;;14.07;3.23;;;16.70;55.80;;;;;;5056109;28;20449;-56
2024/02/01 13:15:38;;;;;;;12.17;2.80;;;16.50;55.90;;;;;;5056348;28;20462;-56
2024/02/01 13:18:11;;;;;;;11.70;3.93;;;16.00;56.60;;;;;;5056040;28;21014;-56
2024/02/01 13:20:38;;;;;;;12.60;3.10;;;15.80;58.60;;;;;;5056387;28;20434;-56
2024/02/01 13:23:08;;;;;;;16.60;3.13;;;15.80;57.80;;;;;;5056434;28;20441;-56
2024/02/01 13:25:38;;;;;;;12.50;3.20;;;15.70;56.60;;;;;;5056243;28;20465;-56